createdAt,value
2019-02-27T00:01:20.766Z,142.43
2019-02-27T00:03:50.290Z,134.83
2019-02-27T00:06:19.979Z,128.63
2019-02-27T00:08:49.768Z,155.00
2019-02-27T00:11:19.303Z,144.17
2019-02-27T00:13:48.821Z,154.50
2019-02-27T00:16:18.670Z,130.60
2019-02-27T00:18:48.183Z,150.03
2019-02-27T00:21:17.772Z,137.90
2019-02-27T00:23:47.324Z,143.13
2019-02-27T00:26:16.841Z,142.30
2019-02-27T00:28:46.365Z,136.23
2019-02-27T00:31:15.974Z,144.97
2019-02-27T00:33:45.498Z,130.40
2019-02-27T00:36:15.003Z,129.60
2019-02-27T00:38:44.564Z,143.60
2019-02-27T00:41:14.085Z,156.40
2019-02-27T00:43:43.585Z,139.67
2019-02-27T00:46:13.920Z,152.87
2019-02-27T00:48:43.632Z,143.87
2019-02-27T00:51:13.151Z,154.63
2019-02-27T00:53:42.708Z,142.80
2019-02-27T00:56:12.910Z,150.40
2019-02-27T00:58:42.530Z,140.47
2019-02-27T01:01:12.613Z,128.60
2019-02-27T01:03:42.816Z,137.87
2019-02-27T01:06:14.632Z,152.50
2019-02-27T01:08:44.159Z,129.10
2019-02-27T01:11:18.187Z,134.13
2019-02-27T01:13:44.933Z,129.13
2019-02-27T01:16:16.978Z,131.60
2019-02-27T01:18:45.957Z,123.20
2019-02-27T01:21:18.942Z,119.37
2019-02-27T01:23:46.922Z,117.30
2019-02-27T01:26:16.590Z,133.03
2019-02-27T01:28:46.124Z,121.37
2019-02-27T01:31:15.751Z,131.63
2019-02-27T01:33:45.270Z,124.60
2019-02-27T01:36:14.801Z,136.47
2019-02-27T01:38:44.562Z,129.90
2019-02-27T01:41:14.088Z,118.83
2019-02-27T01:43:43.951Z,140.20
2019-02-27T01:46:13.512Z,130.07
2019-02-27T01:48:43.857Z,143.00
2019-02-27T01:51:13.423Z,130.47
2019-02-27T01:53:43.387Z,137.13
2019-02-27T01:56:12.904Z,155.40
2019-02-27T01:58:44.231Z,141.77
2019-02-27T02:01:13.690Z,136.50
2019-02-27T02:03:47.240Z,132.00
2019-02-27T02:06:14.453Z,131.97
2019-02-27T02:08:47.935Z,147.10
2019-02-27T02:11:15.609Z,146.33
2019-02-27T02:13:58.486Z,135.87
2019-02-27T02:16:50.675Z,129.80
2019-02-27T02:19:44.261Z,143.53
2019-02-27T02:22:27.491Z,121.53
2019-02-27T02:25:25.123Z,136.57
2019-02-27T02:28:35.191Z,127.23
2019-02-27T02:31:12.402Z,129.37
2019-02-27T02:34:06.366Z,128.90
2019-02-27T02:36:43.322Z,127.13
2019-02-27T02:39:23.655Z,141.63
2019-02-27T02:42:06.408Z,133.73
2019-02-27T02:45:09.590Z,151.47
2019-02-27T02:48:04.596Z,159.30
2019-02-27T02:51:02.172Z,148.00
2019-02-27T02:54:00.122Z,143.87
2019-02-27T02:56:40.506Z,132.50
2019-02-27T02:59:46.682Z,148.03
2019-02-27T03:02:32.769Z,153.00
2019-02-27T03:05:28.243Z,158.57
2019-02-27T03:08:26.576Z,147.60
2019-02-27T03:11:18.128Z,157.57
2019-02-27T03:14:17.251Z,149.33
2019-02-27T03:17:04.718Z,143.63
2019-02-27T03:19:47.423Z,152.33
2019-02-27T03:22:45.702Z,157.70
2019-02-27T03:25:31.526Z,158.63
2019-02-27T03:28:21.057Z,151.07
2019-02-27T03:31:15.707Z,147.30
2019-02-27T03:34:07.967Z,158.50
2019-02-27T03:36:39.746Z,142.97
2019-02-27T03:39:14.075Z,145.90
2019-02-27T03:42:17.232Z,147.20
2019-02-27T03:45:16.436Z,149.30
2019-02-27T03:48:12.586Z,143.17
2019-02-27T03:50:55.463Z,144.17
2019-02-27T03:53:47.256Z,155.57
2019-02-27T03:56:30.334Z,153.67
2019-02-27T03:59:16.152Z,140.67
2019-02-27T04:02:20.604Z,137.83
2019-02-27T04:05:07.159Z,144.63
2019-02-27T04:07:57.585Z,144.90
2019-02-27T04:10:30.869Z,136.13
2019-02-27T04:12:58.396Z,145.77
2019-02-27T04:15:27.907Z,130.27
2019-02-27T04:17:55.978Z,119.93
2019-02-27T04:20:25.515Z,150.00
2019-02-27T04:22:55.031Z,139.33
2019-02-27T04:25:24.597Z,117.27
2019-02-27T04:27:55.596Z,115.83
2019-02-27T04:30:26.001Z,118.03
2019-02-27T04:32:55.518Z,120.00
2019-02-27T04:35:25.027Z,127.37
2019-02-27T04:37:54.914Z,120.10
2019-02-27T04:40:24.461Z,124.50
2019-02-27T04:42:54.031Z,124.70
2019-02-27T04:45:23.579Z,126.17
2019-02-27T04:47:53.097Z,118.43
2019-02-27T04:50:22.639Z,122.43
2019-02-27T04:52:52.151Z,139.50
2019-02-27T04:55:21.871Z,112.90
2019-02-27T04:57:51.386Z,126.43
2019-02-27T05:00:20.935Z,115.33
2019-02-27T05:02:53.401Z,115.97
2019-02-27T05:05:21.734Z,115.87
2019-02-27T05:07:54.135Z,109.87
2019-02-27T05:10:22.590Z,114.77
2019-02-27T05:12:52.118Z,107.80
2019-02-27T05:15:21.665Z,107.53
2019-02-27T05:17:53.034Z,100.50
2019-02-27T05:20:22.444Z,117.00
2019-02-27T05:22:51.964Z,101.03
2019-02-27T05:25:21.504Z,93.70
2019-02-27T05:27:51.031Z,98.97
2019-02-27T05:30:20.562Z,101.83
2019-02-27T05:32:50.111Z,101.17
2019-02-27T05:35:23.318Z,101.47
2019-02-27T05:37:50.978Z,92.03
2019-02-27T05:40:25.668Z,100.53
2019-02-27T05:42:51.754Z,97.47
2019-02-27T05:45:21.846Z,96.77
2019-02-27T05:47:51.392Z,98.43
2019-02-27T05:50:20.923Z,88.47
2019-02-27T05:52:50.443Z,102.93
2019-02-27T05:55:19.984Z,90.27
2019-02-27T05:57:49.494Z,84.20
2019-02-27T06:00:21.201Z,96.33
2019-02-27T06:02:50.795Z,91.00
2019-02-27T06:05:20.315Z,89.00
2019-02-27T06:07:49.850Z,79.90
2019-02-27T06:10:20.078Z,92.70
2019-02-27T06:12:50.331Z,75.73
2019-02-27T06:15:20.108Z,81.57
2019-02-27T06:17:49.864Z,86.20
2019-02-27T06:20:19.434Z,77.50
2019-02-27T06:22:48.942Z,74.20
2019-02-27T06:25:23.206Z,71.47
2019-02-27T06:27:50.791Z,74.20
2019-02-27T06:30:21.668Z,72.70
2019-02-27T06:32:51.183Z,73.20
2019-02-27T06:35:20.717Z,79.03
2019-02-27T06:37:50.732Z,67.93
2019-02-27T06:40:21.010Z,67.53
2019-02-27T06:42:53.417Z,70.30
2019-02-27T06:45:21.804Z,62.50
2019-02-27T06:47:51.433Z,63.83
2019-02-27T06:50:25.195Z,74.57
2019-02-27T06:52:52.203Z,58.50
2019-02-27T06:55:21.988Z,69.80
2019-02-27T06:57:51.494Z,60.47
2019-02-27T07:00:25.891Z,59.60
2019-02-27T07:02:56.227Z,57.30
2019-02-27T07:05:25.904Z,60.60
2019-02-27T07:07:55.457Z,59.23
2019-02-27T07:10:24.997Z,59.87
2019-02-27T07:12:55.322Z,54.43
2019-02-27T07:15:25.055Z,79.47
2019-02-27T07:17:54.581Z,56.90
2019-02-27T07:20:25.126Z,61.60
2019-02-27T07:22:54.827Z,57.33
2019-02-27T07:25:24.363Z,62.93
2019-02-27T07:27:53.893Z,55.87
2019-02-27T07:30:24.023Z,63.97
2019-02-27T07:32:53.627Z,66.50
2019-02-27T07:35:25.520Z,59.63
2019-02-27T07:37:54.487Z,77.50
2019-02-27T07:40:24.011Z,59.20
2019-02-27T07:42:53.643Z,55.20
2019-02-27T07:45:23.928Z,57.43
2019-02-27T07:47:53.438Z,69.63
2019-02-27T07:50:23.291Z,57.33
2019-02-27T07:52:52.798Z,59.40
2019-02-27T07:55:23.611Z,57.30
2019-02-27T07:57:58.342Z,58.50
2019-02-27T08:00:26.392Z,60.23
2019-02-27T08:02:56.230Z,58.73
2019-02-27T08:05:27.982Z,54.20
2019-02-27T08:07:57.013Z,58.33
2019-02-27T08:10:27.283Z,63.70
2019-02-27T08:12:56.898Z,52.90
2019-02-27T08:15:26.453Z,50.40
2019-02-27T08:17:57.977Z,52.03
2019-02-27T08:20:27.329Z,45.53
2019-02-27T08:22:57.957Z,53.57
2019-02-27T08:25:27.780Z,52.10
2019-02-27T08:27:57.361Z,52.03
2019-02-27T08:30:46.290Z,53.33
2019-02-27T08:33:15.918Z,52.03
2019-02-27T08:35:45.525Z,52.20
2019-02-27T08:38:15.285Z,57.33
2019-02-27T08:40:45.187Z,49.40
2019-02-27T08:43:15.027Z,51.63
2019-02-27T08:45:44.821Z,46.43
2019-02-27T08:48:17.254Z,53.37
2019-02-27T08:50:45.776Z,49.20
2019-02-27T08:53:15.361Z,49.87
2019-02-27T08:55:44.989Z,46.47
2019-02-27T08:58:14.593Z,45.07
2019-02-27T09:00:47.071Z,46.97
2019-02-27T09:03:20.220Z,45.13
2019-02-27T09:05:47.311Z,47.50
2019-02-27T09:08:16.911Z,51.20
2019-02-27T09:10:46.471Z,47.27
2019-02-27T09:13:16.115Z,54.57
2019-02-27T09:15:45.695Z,48.53
2019-02-27T09:18:15.267Z,54.97
2019-02-27T09:20:44.863Z,51.50
2019-02-27T09:23:14.437Z,67.70
2019-02-27T09:25:44.282Z,52.80
2019-02-27T09:28:13.852Z,49.90
2019-02-27T09:30:43.417Z,48.60
2019-02-27T09:33:13.008Z,49.10
2019-02-27T09:35:42.645Z,62.50
2019-02-27T09:38:12.230Z,49.77
2019-02-27T09:40:41.953Z,41.53
2019-02-27T09:43:11.731Z,46.87
2019-02-27T09:45:46.245Z,44.20
2019-02-27T09:48:12.875Z,46.80
2019-02-27T09:50:48.333Z,47.50
2019-02-27T09:53:18.786Z,43.20
2019-02-27T09:55:53.251Z,47.60
2019-02-27T09:58:19.917Z,46.50
2019-02-27T10:00:59.146Z,51.30
2019-02-27T10:03:27.927Z,42.80
2019-02-27T10:05:57.528Z,39.60
2019-02-27T10:08:27.153Z,45.93
2019-02-27T10:10:56.718Z,38.43
2019-02-27T10:13:26.385Z,43.60
2019-02-27T10:16:00.612Z,41.63
2019-02-27T10:18:27.602Z,42.30
2019-02-27T10:20:57.311Z,39.13
2019-02-27T10:23:30.180Z,40.73
2019-02-27T10:25:58.218Z,37.70
2019-02-27T10:28:27.781Z,41.97
2019-02-27T10:30:57.467Z,43.90
2019-02-27T10:33:27.031Z,39.93
2019-02-27T10:35:56.955Z,41.80
2019-02-27T10:38:26.884Z,40.77
2019-02-27T10:40:56.622Z,47.97
2019-02-27T10:43:26.213Z,44.00
2019-02-27T10:45:55.850Z,50.70
2019-02-27T10:48:25.423Z,55.37
2019-02-27T10:50:55.114Z,46.20
2019-02-27T10:53:27.173Z,45.33
2019-02-27T10:55:56.188Z,46.43
2019-02-27T10:58:25.807Z,34.83
2019-02-27T11:00:58.085Z,36.50
2019-02-27T11:03:27.540Z,43.37
2019-02-27T11:05:57.110Z,40.93
2019-02-27T11:08:29.551Z,43.57
2019-02-27T11:10:58.522Z,37.90
2019-02-27T11:13:28.231Z,38.00
2019-02-27T11:15:57.881Z,39.83
2019-02-27T11:18:27.450Z,36.90
2019-02-27T11:20:59.180Z,39.67
2019-02-27T11:23:28.327Z,37.37
2019-02-27T11:25:57.894Z,32.33
2019-02-27T11:28:27.495Z,32.13
2019-02-27T11:30:57.119Z,35.20
2019-02-27T11:33:30.115Z,36.90
2019-02-27T11:35:58.064Z,38.07
2019-02-27T11:38:27.814Z,38.73
2019-02-27T11:40:57.382Z,41.90
2019-02-27T11:43:27.028Z,38.47
2019-02-27T11:45:58.022Z,33.60
2019-02-27T11:48:27.922Z,39.80
2019-02-27T11:50:57.697Z,38.73
2019-02-27T11:53:27.260Z,36.43
2019-02-27T11:55:56.903Z,42.03
2019-02-27T11:58:26.504Z,35.30
2019-02-27T12:00:56.130Z,35.67
2019-02-27T12:03:25.800Z,39.13
2019-02-27T12:05:55.479Z,34.43
2019-02-27T12:08:26.653Z,40.97
2019-02-27T12:10:56.624Z,29.23
2019-02-27T12:13:26.180Z,33.80
2019-02-27T12:15:55.786Z,33.07
2019-02-27T12:18:25.348Z,39.77
2019-02-27T12:20:55.054Z,52.93
2019-02-27T12:23:24.642Z,44.03
2019-02-27T12:25:54.211Z,40.33
2019-02-27T12:28:24.564Z,39.87
2019-02-27T12:30:54.121Z,41.87
2019-02-27T12:33:23.689Z,46.37
2019-02-27T12:35:53.283Z,49.53
2019-02-27T12:38:23.137Z,37.00
2019-02-27T12:40:52.720Z,35.80
2019-02-27T12:43:22.289Z,29.27
2019-02-27T12:45:51.915Z,29.27
2019-02-27T12:48:21.588Z,40.80
2019-02-27T12:50:51.411Z,34.03
2019-02-27T12:53:21.774Z,37.50
2019-02-27T12:55:51.603Z,28.80
2019-02-27T12:58:21.225Z,29.90
2019-02-27T13:00:50.880Z,29.43
2019-02-27T13:03:20.507Z,35.50
2019-02-27T13:05:50.119Z,33.27
2019-02-27T13:08:19.680Z,34.73
2019-02-27T13:10:49.325Z,30.70
2019-02-27T13:13:18.921Z,29.17
2019-02-27T13:15:48.489Z,31.53
2019-02-27T13:18:18.362Z,27.93
2019-02-27T13:20:47.986Z,23.50
2019-02-27T13:23:17.553Z,24.53
2019-02-27T13:25:47.148Z,28.37
2019-02-27T13:28:16.704Z,33.50
2019-02-27T13:30:46.454Z,26.53
2019-02-27T13:33:16.034Z,26.93
2019-02-27T13:35:45.731Z,26.20
2019-02-27T13:38:18.525Z,29.10
2019-02-27T13:40:46.747Z,23.60
2019-02-27T13:43:16.397Z,36.90
2019-02-27T13:45:47.567Z,25.90
2019-02-27T13:48:17.351Z,29.40
2019-02-27T13:50:47.001Z,29.47
2019-02-27T13:53:16.567Z,23.50
2019-02-27T13:55:48.138Z,25.70
2019-02-27T13:58:17.475Z,26.63
2019-02-27T14:00:47.170Z,21.23
2019-02-27T14:03:16.765Z,16.13
2019-02-27T14:05:46.323Z,23.47
2019-02-27T14:08:16.359Z,16.90
2019-02-27T14:10:46.004Z,16.73
2019-02-27T14:13:15.573Z,18.63
2019-02-27T14:15:45.165Z,16.37
2019-02-27T14:18:16.114Z,25.23
2019-02-27T14:20:46.119Z,11.70
2019-02-27T14:23:15.681Z,13.57
2019-02-27T14:25:45.322Z,17.73
2019-02-27T14:28:14.919Z,17.60
2019-02-27T14:30:57.319Z,14.10
2019-02-27T14:33:26.909Z,14.40
2019-02-27T14:35:56.471Z,13.70
2019-02-27T14:38:26.050Z,11.00
2019-02-27T14:40:55.721Z,12.50
2019-02-27T14:43:27.358Z,14.03
2019-02-27T14:45:56.678Z,12.30
2019-02-27T14:48:27.776Z,11.33
2019-02-27T14:50:57.359Z,14.23
2019-02-27T14:53:26.953Z,19.73
2019-02-27T14:55:56.667Z,14.83
2019-02-27T14:58:26.254Z,20.40
2019-02-27T15:00:55.837Z,16.87
2019-02-27T15:03:29.280Z,17.80
2019-02-27T15:05:56.924Z,18.20
2019-02-27T15:08:26.479Z,25.10
2019-02-27T15:10:56.510Z,20.47
2019-02-27T15:13:28.429Z,18.90
2019-02-27T15:15:57.379Z,17.20
2019-02-27T15:18:27.249Z,23.23
2019-02-27T15:20:56.879Z,19.90
2019-02-27T15:23:28.310Z,21.33
2019-02-27T15:25:57.781Z,23.90
2019-02-27T15:28:32.997Z,18.50
2019-02-27T15:30:58.672Z,23.47
2019-02-27T15:33:28.251Z,21.80
2019-02-27T15:35:57.855Z,16.40
2019-02-27T15:38:27.418Z,17.13
2019-02-27T15:40:56.984Z,17.33
2019-02-27T15:43:26.573Z,19.73
2019-02-27T15:45:56.136Z,15.30
2019-02-27T15:48:25.890Z,16.93
2019-02-27T15:50:57.234Z,22.00
2019-02-27T15:53:26.825Z,18.40
2019-02-27T15:55:56.516Z,23.60
2019-02-27T15:58:28.117Z,28.03
2019-02-27T16:00:57.576Z,18.07
2019-02-27T16:03:27.145Z,21.27
2019-02-27T16:05:56.708Z,23.30
2019-02-27T16:08:26.318Z,24.37
2019-02-27T16:10:55.891Z,25.60
2019-02-27T16:13:25.497Z,23.20
2019-02-27T16:15:55.128Z,15.90
2019-02-27T16:18:24.686Z,21.90
2019-02-27T16:20:54.285Z,27.37
2019-02-27T16:23:23.906Z,28.57
2019-02-27T16:25:55.885Z,24.47
2019-02-27T16:28:24.884Z,27.23
2019-02-27T16:30:54.452Z,20.13
2019-02-27T16:33:24.611Z,22.73
2019-02-27T16:35:54.365Z,28.10
2019-02-27T16:38:24.046Z,27.47
2019-02-27T16:40:53.717Z,29.50
2019-02-27T16:43:23.265Z,21.00
2019-02-27T16:45:52.860Z,20.60
2019-02-27T16:48:22.442Z,16.90
2019-02-27T16:50:52.236Z,29.80
2019-02-27T16:53:21.827Z,33.00
2019-02-27T16:55:51.388Z,27.97
2019-02-27T16:58:21.376Z,23.13
2019-02-27T17:00:54.403Z,18.13
2019-02-27T17:03:22.613Z,19.13
2019-02-27T17:05:52.167Z,26.43
2019-02-27T17:08:21.785Z,22.10
2019-02-27T17:10:51.937Z,33.97
2019-02-27T17:13:22.263Z,17.43
2019-02-27T17:15:51.837Z,19.77
2019-02-27T17:18:21.403Z,21.80
2019-02-27T17:20:51.041Z,25.63
2019-02-27T17:23:20.639Z,30.60
2019-02-27T17:25:50.268Z,24.60
2019-02-27T17:28:20.290Z,21.13
2019-02-27T17:30:49.935Z,26.60
2019-02-27T17:33:19.586Z,28.10
2019-02-27T17:35:49.202Z,28.87
2019-02-27T17:38:18.779Z,28.10
2019-02-27T17:40:48.542Z,24.17
2019-02-27T17:43:18.166Z,24.50
2019-02-27T17:45:47.725Z,25.93
2019-02-27T17:48:17.314Z,24.50
2019-02-27T17:50:46.892Z,27.60
2019-02-27T17:53:16.889Z,20.07
2019-02-27T17:55:46.456Z,31.10
2019-02-27T17:58:16.017Z,22.70
2019-02-27T18:00:49.978Z,24.20
2019-02-27T18:03:18.584Z,21.97
2019-02-27T18:05:48.170Z,17.20
2019-02-27T18:08:17.740Z,30.90
2019-02-27T18:10:47.445Z,26.97
2019-02-27T18:13:17.039Z,23.90
2019-02-27T18:15:46.733Z,24.40
2019-02-27T18:18:16.399Z,21.43
2019-02-27T18:20:47.512Z,23.70
2019-02-27T18:23:17.066Z,40.57
2019-02-27T18:25:46.727Z,18.00
2019-02-27T18:28:16.291Z,20.60
2019-02-27T18:30:46.136Z,29.07
2019-02-27T18:33:17.468Z,16.03
2019-02-27T18:35:47.193Z,22.30
2019-02-27T18:38:16.823Z,15.10
2019-02-27T18:40:46.389Z,22.77
2019-02-27T18:43:16.030Z,23.10
2019-02-27T18:45:48.131Z,20.10
2019-02-27T18:48:16.912Z,48.83
2019-02-27T18:50:46.862Z,25.63
2019-02-27T18:53:16.451Z,44.67
2019-02-27T18:55:46.206Z,25.13
2019-02-27T18:58:18.246Z,26.33
2019-02-27T19:00:47.144Z,29.40
2019-02-27T19:03:16.817Z,21.80
2019-02-27T19:05:46.460Z,24.10
2019-02-27T19:08:16.333Z,32.43
2019-02-27T19:10:46.346Z,25.53
2019-02-27T19:13:16.096Z,28.13
2019-02-27T19:15:46.447Z,28.83
2019-02-27T19:18:16.071Z,32.57
2019-02-27T19:20:47.623Z,27.63
2019-02-27T19:23:18.516Z,27.80
2019-02-27T19:25:48.538Z,26.17
2019-02-27T19:28:18.194Z,23.37
2019-02-27T19:30:47.762Z,30.63
2019-02-27T19:33:17.592Z,24.23
2019-02-27T19:35:47.213Z,28.57
2019-02-27T19:38:16.792Z,28.00
2019-02-27T19:40:46.514Z,25.67
2019-02-27T19:43:18.122Z,26.87
2019-02-27T19:45:47.733Z,23.93
2019-02-27T19:48:17.294Z,22.27
2019-02-27T19:50:47.394Z,17.73
2019-02-27T19:53:17.019Z,48.20
2019-02-27T19:55:46.724Z,25.57
2019-02-27T19:58:18.191Z,21.43
2019-02-27T20:00:48.757Z,25.93
2019-02-27T20:03:18.534Z,25.33
2019-02-27T20:05:50.612Z,22.93
2019-02-27T20:08:19.618Z,21.63
2019-02-27T20:10:52.065Z,21.43
2019-02-27T20:13:24.718Z,23.70
2019-02-27T20:15:53.183Z,24.13
2019-02-27T20:18:23.536Z,20.33
2019-02-27T20:20:53.418Z,21.37
2019-02-27T20:23:25.766Z,17.47
2019-02-27T20:25:56.088Z,21.27
2019-02-27T20:28:25.974Z,22.20
2019-02-27T20:30:55.543Z,30.00
2019-02-27T20:33:25.167Z,24.00
2019-02-27T20:35:55.632Z,19.47
2019-02-27T20:38:26.331Z,24.10
2019-02-27T20:40:55.991Z,28.23
2019-02-27T20:43:29.139Z,19.53
2019-02-27T20:45:56.905Z,18.30
2019-02-27T20:48:26.521Z,20.17
2019-02-27T20:51:05.895Z,19.17
2019-02-27T20:53:34.526Z,17.67
2019-02-27T20:56:04.088Z,22.83
2019-02-27T20:58:33.681Z,17.03
2019-02-27T21:01:03.243Z,20.73
2019-02-27T21:03:32.910Z,20.17
2019-02-27T21:06:02.541Z,24.40
2019-02-27T21:08:33.281Z,20.87
2019-02-27T21:11:04.441Z,22.07
2019-02-27T21:13:34.000Z,22.17
2019-02-27T21:16:09.264Z,23.47
2019-02-27T21:18:35.412Z,24.10
2019-02-27T21:21:05.074Z,23.67
2019-02-27T21:23:34.736Z,21.70
2019-02-27T21:26:04.424Z,26.93
2019-02-27T21:28:34.019Z,25.90
2019-02-27T21:31:03.723Z,26.40
2019-02-27T21:33:33.302Z,20.37
2019-02-27T21:36:03.665Z,21.00
2019-02-27T21:38:33.467Z,18.63
2019-02-27T21:41:03.101Z,22.40
2019-02-27T21:43:32.679Z,23.93
2019-02-27T21:46:02.234Z,16.47
2019-02-27T21:48:31.825Z,21.67
2019-02-27T21:51:01.389Z,21.10
2019-02-27T21:53:30.937Z,28.90
2019-02-27T21:56:00.525Z,18.93
2019-02-27T21:58:32.834Z,22.43
2019-02-27T22:01:01.397Z,20.37
2019-02-27T22:03:31.422Z,15.17
2019-02-27T22:06:00.981Z,14.80
2019-02-27T22:08:30.665Z,18.60
2019-02-27T22:11:00.450Z,18.17
2019-02-27T22:13:32.262Z,14.17
2019-02-27T22:16:01.393Z,11.73
2019-02-27T22:18:31.127Z,16.07
2019-02-27T22:21:00.751Z,19.87
2019-02-27T22:23:30.302Z,15.97
2019-02-27T22:26:03.143Z,15.27
2019-02-27T22:28:31.366Z,16.27
2019-02-27T22:31:06.290Z,12.77
2019-02-27T22:33:32.326Z,16.70
2019-02-27T22:36:01.948Z,13.60
2019-02-27T22:38:31.506Z,12.07
2019-02-27T22:41:01.089Z,26.70
2019-02-27T22:43:30.642Z,19.83
2019-02-27T22:46:00.197Z,16.27
2019-02-27T22:48:29.781Z,10.43
2019-02-27T22:50:59.356Z,10.03
2019-02-27T22:53:29.419Z,19.13
2019-02-27T22:55:59.322Z,10.23
2019-02-27T22:58:28.897Z,12.87
2019-02-27T23:01:10.373Z,10.50
2019-02-27T23:03:44.829Z,7.80
2019-02-27T23:06:14.443Z,13.57
2019-02-27T23:08:44.191Z,13.60
2019-02-27T23:11:14.081Z,9.03
2019-02-27T23:13:47.635Z,15.80
2019-02-27T23:16:18.532Z,16.20
2019-02-27T23:18:48.225Z,15.00
2019-02-27T23:21:18.037Z,10.43
2019-02-27T23:23:47.630Z,8.80
2019-02-27T23:26:19.814Z,10.37
2019-02-27T23:28:48.673Z,9.13
2019-02-27T23:31:22.404Z,11.80
2019-02-27T23:33:49.543Z,14.37
2019-02-27T23:36:22.010Z,11.70
2019-02-27T23:38:50.488Z,8.20
2019-02-27T23:41:22.899Z,10.40
2019-02-27T23:43:51.324Z,10.40
2019-02-27T23:46:21.004Z,15.27
2019-02-27T23:48:50.543Z,13.27
2019-02-27T23:51:20.113Z,14.80
2019-02-27T23:53:49.684Z,8.93
2019-02-27T23:56:20.240Z,8.53
2019-02-27T23:58:50.322Z,9.83
